sensor_id;sensor_type;location;lat;lon;timestamp;pressure;altitude;pressure_sealevel;temperature;humidity
35878;BME280;21982;49.804;24.072;2023-10-13T00:00:28;97377.25;;;15.54;78.55
35878;BME280;21982;49.804;24.072;2023-10-13T00:03:06;97369.66;;;15.57;78.89
35878;BME280;21982;49.804;24.072;2023-10-13T00:05:32;97397.28;;;15.63;78.45
35878;BME280;21982;49.804;24.072;2023-10-13T00:08:02;97254.97;;;14.94;78.42
35878;BME280;21982;49.804;24.072;2023-10-13T00:10:31;97378.78;;;15.68;78.52
35878;BME280;21982;49.804;24.072;2023-10-13T00:12:59;97341.38;;;15.43;78.46
35878;BME280;21982;49.804;24.072;2023-10-13T00:15:44;97328.00;;;15.50;78.26
35878;BME280;21982;49.804;24.072;2023-10-13T00:18:22;97380.41;;;15.69;78.42
35878;BME280;21982;49.804;24.072;2023-10-13T00:20:47;97150.00;;;14.32;78.36
35878;BME280;21982;49.804;24.072;2023-10-13T00:23:15;97173.50;;;14.49;78.50
35878;BME280;21982;49.804;24.072;2023-10-13T00:25:49;97296.69;;;15.38;78.36
35878;BME280;21982;49.804;24.072;2023-10-13T00:28:18;97281.97;;;15.29;78.55
35878;BME280;21982;49.804;24.072;2023-10-13T00:30:50;97370.81;;;15.86;78.34
35878;BME280;21982;49.804;24.072;2023-10-13T00:33:17;97254.06;;;15.07;78.20
35878;BME280;21982;49.804;24.072;2023-10-13T00:35:46;97356.56;;;15.74;78.62
35878;BME280;21982;49.804;24.072;2023-10-13T00:38:13;97132.78;;;14.41;78.33
35878;BME280;21982;49.804;24.072;2023-10-13T00:40:41;97372.75;;;15.97;78.25
35878;BME280;21982;49.804;24.072;2023-10-13T00:43:08;97377.19;;;15.85;78.63
35878;BME280;21982;49.804;24.072;2023-10-13T00:45:46;97372.03;;;15.90;78.61
35878;BME280;21982;49.804;24.072;2023-10-13T00:48:45;97150.53;;;14.54;78.83
35878;BME280;21982;49.804;24.072;2023-10-13T00:51:20;97375.72;;;15.89;78.68
35878;BME280;21982;49.804;24.072;2023-10-13T00:54:05;97275.97;;;15.34;78.47
35878;BME280;21982;49.804;24.072;2023-10-13T00:56:41;97352.41;;;15.78;78.34
35878;BME280;21982;49.804;24.072;2023-10-13T00:59:15;97392.94;;;15.93;78.94
35878;BME280;21982;49.804;24.072;2023-10-13T01:01:41;97330.84;;;15.55;78.37
35878;BME280;21982;49.804;24.072;2023-10-13T01:04:11;97333.81;;;15.65;78.48
35878;BME280;21982;49.804;24.072;2023-10-13T01:06:38;97335.91;;;15.63;78.74
35878;BME280;21982;49.804;24.072;2023-10-13T01:09:09;97382.75;;;15.84;78.40
35878;BME280;21982;49.804;24.072;2023-10-13T01:11:49;97413.25;;;15.94;78.36
35878;BME280;21982;49.804;24.072;2023-10-13T01:14:18;97305.34;;;15.34;78.54
35878;BME280;21982;49.804;24.072;2023-10-13T01:16:46;97321.88;;;15.42;78.72
35878;BME280;21982;49.804;24.072;2023-10-13T01:19:13;97398.22;;;16.00;78.88
35878;BME280;21982;49.804;24.072;2023-10-13T01:21:39;97395.91;;;15.85;78.87
35878;BME280;21982;49.804;24.072;2023-10-13T01:24:12;97351.25;;;15.67;78.85
35878;BME280;21982;49.804;24.072;2023-10-13T01:26:39;97209.53;;;14.83;78.76
35878;BME280;21982;49.804;24.072;2023-10-13T01:29:06;96745.94;;;11.97;78.26
35878;BME280;21982;49.804;24.072;2023-10-13T01:31:41;97022.38;;;13.43;78.37
35878;BME280;21982;49.804;24.072;2023-10-13T01:34:12;97372.03;;;15.90;78.69
35878;BME280;21982;49.804;24.072;2023-10-13T01:36:38;97402.66;;;16.06;78.58
35878;BME280;21982;49.804;24.072;2023-10-13T01:39:05;97206.22;;;14.87;78.49
35878;BME280;21982;49.804;24.072;2023-10-13T01:41:30;97406.59;;;16.03;78.56
35878;BME280;21982;49.804;24.072;2023-10-13T01:43:56;97313.13;;;15.35;78.41
35878;BME280;21982;49.804;24.072;2023-10-13T01:46:22;97222.22;;;14.87;78.70
35878;BME280;21982;49.804;24.072;2023-10-13T01:48:48;97116.75;;;14.17;78.64
35878;BME280;21982;49.804;24.072;2023-10-13T01:51:13;97375.03;;;15.75;78.77
35878;BME280;21982;49.804;24.072;2023-10-13T01:53:39;97305.06;;;15.42;78.95
35878;BME280;21982;49.804;24.072;2023-10-13T01:56:07;97276.41;;;15.31;78.67
35878;BME280;21982;49.804;24.072;2023-10-13T01:58:39;97158.81;;;14.64;78.60
35878;BME280;21982;49.804;24.072;2023-10-13T02:01:08;97381.81;;;15.96;79.05
35878;BME280;21982;49.804;24.072;2023-10-13T02:03:35;97289.53;;;15.32;78.49
35878;BME280;21982;49.804;24.072;2023-10-13T02:06:06;97023.91;;;13.64;78.44
35878;BME280;21982;49.804;24.072;2023-10-13T02:08:35;97067.63;;;13.81;78.44
35878;BME280;21982;49.804;24.072;2023-10-13T02:11:05;97407.25;;;15.99;78.50
35878;BME280;21982;49.804;24.072;2023-10-13T02:13:32;97364.72;;;15.79;78.75
35878;BME280;21982;49.804;24.072;2023-10-13T02:15:58;97115.78;;;14.04;78.77
35878;BME280;21982;49.804;24.072;2023-10-13T02:18:28;97403.16;;;15.96;78.90
35878;BME280;21982;49.804;24.072;2023-10-13T02:21:02;97407.63;;;16.02;78.77
35878;BME280;21982;49.804;24.072;2023-10-13T02:23:37;97398.41;;;15.98;78.92
35878;BME280;21982;49.804;24.072;2023-10-13T02:26:08;97359.88;;;15.69;78.68
35878;BME280;21982;49.804;24.072;2023-10-13T02:28:40;97345.41;;;15.59;78.96
35878;BME280;21982;49.804;24.072;2023-10-13T02:31:05;97211.44;;;14.75;78.65
35878;BME280;21982;49.804;24.072;2023-10-13T02:33:32;97404.38;;;16.00;78.91
35878;BME280;21982;49.804;24.072;2023-10-13T02:36:04;97278.41;;;15.17;78.56
35878;BME280;21982;49.804;24.072;2023-10-13T02:38:32;97378.72;;;15.74;78.84
35878;BME280;21982;49.804;24.072;2023-10-13T02:41:09;97329.03;;;15.49;78.70
35878;BME280;21982;49.804;24.072;2023-10-13T02:43:35;97412.22;;;15.95;78.90
35878;BME280;21982;49.804;24.072;2023-10-13T02:46:01;97092.06;;;13.96;78.58
35878;BME280;21982;49.804;24.072;2023-10-13T02:48:28;97283.66;;;14.99;78.75
35878;BME280;21982;49.804;24.072;2023-10-13T02:51:16;97391.47;;;15.72;78.88
35878;BME280;21982;49.804;24.072;2023-10-13T02:53:46;97430.16;;;15.88;78.90
35878;BME280;21982;49.804;24.072;2023-10-13T02:56:15;97287.69;;;15.08;79.02
35878;BME280;21982;49.804;24.072;2023-10-13T02:58:47;97166.81;;;14.33;78.72
35878;BME280;21982;49.804;24.072;2023-10-13T03:01:19;97388.19;;;15.70;79.06
35878;BME280;21982;49.804;24.072;2023-10-13T03:03:49;97269.31;;;14.93;78.78
35878;BME280;21982;49.804;24.072;2023-10-13T03:08:54;97444.78;;;15.86;79.17
35878;BME280;21982;49.804;24.072;2023-10-13T03:11:19;97075.28;;;13.58;79.01
35878;BME280;21982;49.804;24.072;2023-10-13T03:13:47;97157.38;;;13.99;78.79
35878;BME280;21982;49.804;24.072;2023-10-13T03:16:14;97460.19;;;15.84;79.03
35878;BME280;21982;49.804;24.072;2023-10-13T03:18:46;97423.84;;;15.83;78.96
35878;BME280;21982;49.804;24.072;2023-10-13T03:21:19;97423.94;;;15.69;78.62
35878;BME280;21982;49.804;24.072;2023-10-13T03:23:54;97239.81;;;14.63;78.87
35878;BME280;21982;49.804;24.072;2023-10-13T03:26:20;97180.75;;;14.28;78.77
35878;BME280;21982;49.804;24.072;2023-10-13T03:28:48;97354.38;;;15.08;79.18
35878;BME280;21982;49.804;24.072;2023-10-13T03:31:20;96850.63;;;12.08;78.79
35878;BME280;21982;49.804;24.072;2023-10-13T03:33:51;97415.88;;;15.45;78.63
35878;BME280;21982;49.804;24.072;2023-10-13T03:36:22;97227.84;;;14.34;79.24
35878;BME280;21982;49.804;24.072;2023-10-13T03:39:06;97420.16;;;15.52;78.97
35878;BME280;21982;49.804;24.072;2023-10-13T03:41:32;97178.47;;;14.00;78.86
35878;BME280;21982;49.804;24.072;2023-10-13T03:44:02;97356.34;;;15.19;79.32
35878;BME280;21982;49.804;24.072;2023-10-13T03:46:38;97145.75;;;13.87;79.02
35878;BME280;21982;49.804;24.072;2023-10-13T03:49:06;97420.16;;;15.59;79.15
35878;BME280;21982;49.804;24.072;2023-10-13T03:51:38;97320.59;;;14.95;79.11
35878;BME280;21982;49.804;24.072;2023-10-13T03:54:04;97174.34;;;14.04;79.25
35878;BME280;21982;49.804;24.072;2023-10-13T03:56:32;97201.44;;;13.88;79.35
35878;BME280;21982;49.804;24.072;2023-10-13T03:59:05;97369.56;;;15.32;79.52
35878;BME280;21982;49.804;24.072;2023-10-13T04:01:40;97357.66;;;15.03;79.30
35878;BME280;21982;49.804;24.072;2023-10-13T04:04:09;97386.97;;;15.41;79.24
35878;BME280;21982;49.804;24.072;2023-10-13T04:06:39;97429.59;;;15.55;79.22
35878;BME280;21982;49.804;24.072;2023-10-13T04:09:21;97331.53;;;14.87;78.61
35878;BME280;21982;49.804;24.072;2023-10-13T04:12:03;97191.16;;;14.05;78.94
35878;BME280;21982;49.804;24.072;2023-10-13T04:14:37;97373.81;;;15.15;78.91
35878;BME280;21982;49.804;24.072;2023-10-13T04:17:28;97193.13;;;13.78;79.29
35878;BME280;21982;49.804;24.072;2023-10-13T04:19:57;97339.31;;;14.89;79.62
35878;BME280;21982;49.804;24.072;2023-10-13T04:22:42;97188.34;;;13.87;79.00
35878;BME280;21982;49.804;24.072;2023-10-13T04:25:27;97344.97;;;14.99;79.24
35878;BME280;21982;49.804;24.072;2023-10-13T04:28:09;97418.38;;;15.39;80.01
35878;BME280;21982;49.804;24.072;2023-10-13T04:30:59;97447.13;;;15.37;79.55
35878;BME280;21982;49.804;24.072;2023-10-13T04:33:32;97422.94;;;15.32;79.58
35878;BME280;21982;49.804;24.072;2023-10-13T04:36:08;97319.75;;;14.63;79.46
35878;BME280;21982;49.804;24.072;2023-10-13T04:38:58;97413.41;;;15.18;79.73
35878;BME280;21982;49.804;24.072;2023-10-13T04:44:12;97340.47;;;14.61;79.72
35878;BME280;21982;49.804;24.072;2023-10-13T04:47:07;97467.97;;;15.22;80.39
35878;BME280;21982;49.804;24.072;2023-10-13T04:49:43;97448.84;;;15.25;80.53
35878;BME280;21982;49.804;24.072;2023-10-13T04:52:09;97325.38;;;14.49;80.45
35878;BME280;21982;49.804;24.072;2023-10-13T04:54:42;97373.06;;;14.63;80.79
35878;BME280;21982;49.804;24.072;2023-10-13T04:57:17;97325.84;;;14.26;80.71
35878;BME280;21982;49.804;24.072;2023-10-13T04:59:56;97351.84;;;14.44;80.75
35878;BME280;21982;49.804;24.072;2023-10-13T05:02:43;97469.59;;;15.23;80.90
35878;BME280;21982;49.804;24.072;2023-10-13T05:05:27;97344.66;;;14.44;81.20
35878;BME280;21982;49.804;24.072;2023-10-13T05:08:31;97288.00;;;14.11;80.98
35878;BME280;21982;49.804;24.072;2023-10-13T05:11:15;97205.88;;;13.56;80.95
35878;BME280;21982;49.804;24.072;2023-10-13T05:13:59;97155.00;;;13.26;81.14
35878;BME280;21982;49.804;24.072;2023-10-13T05:16:43;97355.09;;;14.46;81.40
35878;BME280;21982;49.804;24.072;2023-10-13T05:19:27;97345.47;;;14.38;81.17
35878;BME280;21982;49.804;24.072;2023-10-13T05:22:11;97438.31;;;14.99;80.90
35878;BME280;21982;49.804;24.072;2023-10-13T05:24:55;97487.25;;;15.24;81.46
35878;BME280;21982;49.804;24.072;2023-10-13T05:27:40;97496.50;;;15.15;80.78
35878;BME280;21982;49.804;24.072;2023-10-13T05:30:24;97503.59;;;15.34;81.27
35878;BME280;21982;49.804;24.072;2023-10-13T05:33:08;97379.41;;;14.62;80.66
35878;BME280;21982;49.804;24.072;2023-10-13T05:35:52;97456.69;;;15.20;80.95
35878;BME280;21982;49.804;24.072;2023-10-13T05:38:36;97174.22;;;13.35;80.86
35878;BME280;21982;49.804;24.072;2023-10-13T05:41:20;97467.38;;;15.14;80.84
35878;BME280;21982;49.804;24.072;2023-10-13T05:44:04;97445.50;;;14.92;80.84
35878;BME280;21982;49.804;24.072;2023-10-13T05:46:48;97414.56;;;14.91;80.72
35878;BME280;21982;49.804;24.072;2023-10-13T05:49:32;97525.06;;;15.53;80.95
35878;BME280;21982;49.804;24.072;2023-10-13T05:52:18;97389.47;;;14.60;81.09
35878;BME280;21982;49.804;24.072;2023-10-13T05:55:02;97416.44;;;14.84;80.78
35878;BME280;21982;49.804;24.072;2023-10-13T05:57:46;97515.22;;;15.47;81.06
35878;BME280;21982;49.804;24.072;2023-10-13T06:00:30;97441.59;;;15.01;80.89
35878;BME280;21982;49.804;24.072;2023-10-13T06:03:14;97369.03;;;14.54;80.99
35878;BME280;21982;49.804;24.072;2023-10-13T06:05:58;97439.94;;;15.00;81.10
35878;BME280;21982;49.804;24.072;2023-10-13T06:08:42;97457.81;;;14.93;81.44
35878;BME280;21982;49.804;24.072;2023-10-13T06:11:26;97502.13;;;15.38;81.10
35878;BME280;21982;49.804;24.072;2023-10-13T06:14:10;97481.31;;;15.22;81.19
35878;BME280;21982;49.804;24.072;2023-10-13T06:16:53;97258.41;;;13.81;81.00
35878;BME280;21982;49.804;24.072;2023-10-13T06:19:40;97552.06;;;15.76;81.29
35878;BME280;21982;49.804;24.072;2023-10-13T06:22:24;97506.63;;;15.45;81.32
35878;BME280;21982;49.804;24.072;2023-10-13T06:25:08;97392.31;;;14.72;81.24
35878;BME280;21982;49.804;24.072;2023-10-13T06:27:52;97544.25;;;15.74;81.51
35878;BME280;21982;49.804;24.072;2023-10-13T06:30:36;97569.56;;;15.97;81.26
35878;BME280;21982;49.804;24.072;2023-10-13T06:33:01;97500.22;;;15.59;81.17
35878;BME280;21982;49.804;24.072;2023-10-13T06:35:29;97526.94;;;15.84;80.90
35878;BME280;21982;49.804;24.072;2023-10-13T06:37:56;97322.41;;;14.63;80.91
35878;BME280;21982;49.804;24.072;2023-10-13T06:40:26;97452.16;;;15.21;80.71
35878;BME280;21982;49.804;24.072;2023-10-13T06:42:53;97377.31;;;14.78;80.77
35878;BME280;21982;49.804;24.072;2023-10-13T06:45:20;97494.72;;;15.79;80.83
35878;BME280;21982;49.804;24.072;2023-10-13T06:47:47;97584.56;;;16.29;80.75
35878;BME280;21982;49.804;24.072;2023-10-13T06:50:14;97451.09;;;15.60;80.41
35878;BME280;21982;49.804;24.072;2023-10-13T06:52:48;97149.09;;;13.82;80.38
35878;BME280;21982;49.804;24.072;2023-10-13T06:55:14;97461.88;;;15.78;80.46
35878;BME280;21982;49.804;24.072;2023-10-13T06:57:46;97590.69;;;16.61;80.35
35878;BME280;21982;49.804;24.072;2023-10-13T07:00:12;97506.84;;;16.31;80.29
35878;BME280;21982;49.804;24.072;2023-10-13T07:02:48;97589.44;;;16.89;79.95
35878;BME280;21982;49.804;24.072;2023-10-13T07:05:17;97561.81;;;16.70;79.59
35878;BME280;21982;49.804;24.072;2023-10-13T07:07:42;97457.19;;;16.23;79.52
35878;BME280;21982;49.804;24.072;2023-10-13T07:10:11;97586.53;;;17.08;79.57
35878;BME280;21982;49.804;24.072;2023-10-13T07:12:38;97383.00;;;15.57;78.91
35878;BME280;21982;49.804;24.072;2023-10-13T07:15:08;97608.03;;;17.20;79.16
35878;BME280;21982;49.804;24.072;2023-10-13T07:17:45;97169.44;;;14.71;78.70
35878;BME280;21982;49.804;24.072;2023-10-13T07:20:12;97587.28;;;17.34;78.63
35878;BME280;21982;49.804;24.072;2023-10-13T07:22:50;97266.06;;;15.41;78.26
35878;BME280;21982;49.804;24.072;2023-10-13T07:25:32;97475.91;;;16.85;77.90
35878;BME280;21982;49.804;24.072;2023-10-13T07:28:01;97391.22;;;16.60;77.16
35878;BME280;21982;49.804;24.072;2023-10-13T07:30:28;97476.16;;;17.43;76.66
35878;BME280;21982;49.804;24.072;2023-10-13T07:32:56;97568.03;;;18.33;75.93
35878;BME280;21982;49.804;24.072;2023-10-13T07:35:25;97539.69;;;18.49;74.64
35878;BME280;21982;49.804;24.072;2023-10-13T07:37:51;97264.16;;;16.99;73.60
35878;BME280;21982;49.804;24.072;2023-10-13T07:40:21;97336.97;;;17.31;73.00
35878;BME280;21982;49.804;24.072;2023-10-13T07:42:55;97474.16;;;18.57;71.90
35878;BME280;21982;49.804;24.072;2023-10-13T07:45:27;97375.94;;;17.92;71.66
35878;BME280;21982;49.804;24.072;2023-10-13T07:48:04;97236.50;;;16.94;71.22
35878;BME280;21982;49.804;24.072;2023-10-13T07:50:41;97581.78;;;19.30;70.98
35878;BME280;21982;49.804;24.072;2023-10-13T07:53:07;97358.69;;;17.88;70.90
35878;BME280;21982;49.804;24.072;2023-10-13T07:55:53;97453.28;;;18.47;70.76
35878;BME280;21982;49.804;24.072;2023-10-13T07:58:22;97550.44;;;18.96;70.12
35878;BME280;21982;49.804;24.072;2023-10-13T08:00:51;97355.25;;;17.46;69.80
35878;BME280;21982;49.804;24.072;2023-10-13T09:22:42;97422.47;;;19.41;60.03
35878;BME280;21982;49.804;24.072;2023-10-13T09:25:08;97337.97;;;19.16;59.74
35878;BME280;21982;49.804;24.072;2023-10-13T09:27:39;97580.47;;;21.57;58.61
35878;BME280;21982;49.804;24.072;2023-10-13T09:30:05;97538.91;;;22.29;57.98
35878;BME280;21982;49.804;24.072;2023-10-13T09:33:02;97583.59;;;23.78;56.31
35878;BME280;21982;49.804;24.072;2023-10-13T09:35:30;97420.25;;;23.54;54.09
35878;BME280;21982;49.804;24.072;2023-10-13T09:38:01;97493.34;;;24.35;52.48
35878;BME280;21982;49.804;24.072;2023-10-13T09:40:28;97592.91;;;25.29;51.72
35878;BME280;21982;49.804;24.072;2023-10-13T09:43:03;97594.66;;;26.24;50.10
35878;BME280;21982;49.804;24.072;2023-10-13T09:45:41;97513.75;;;26.60;48.36
35878;BME280;21982;49.804;24.072;2023-10-13T09:48:24;97574.25;;;27.47;47.12
35878;BME280;21982;49.804;24.072;2023-10-13T09:50:57;97435.94;;;26.98;45.86
35878;BME280;21982;49.804;24.072;2023-10-13T09:53:24;97525.47;;;27.56;45.36
35878;BME280;21982;49.804;24.072;2023-10-13T09:55:55;97534.88;;;27.87;44.20
35878;BME280;21982;49.804;24.072;2023-10-13T09:58:27;97528.50;;;28.48;43.76
35878;BME280;21982;49.804;24.072;2023-10-13T10:01:02;97471.34;;;28.62;42.04
35878;BME280;21982;49.804;24.072;2023-10-13T10:03:47;97519.78;;;28.65;42.82
35878;BME280;21982;49.804;24.072;2023-10-13T10:06:33;97504.53;;;28.78;41.93
35878;BME280;21982;49.804;24.072;2023-10-13T10:09:08;97564.72;;;29.82;40.76
35878;BME280;21982;49.804;24.072;2023-10-13T10:17:46;97543.88;;;26.63;42.95
35878;BME280;21982;49.804;24.072;2023-10-13T10:20:13;97520.28;;;25.26;44.30
35878;BME280;21982;49.804;24.072;2023-10-13T10:22:59;97554.41;;;25.27;45.45
35878;BME280;21982;49.804;24.072;2023-10-13T10:25:32;97425.53;;;25.50;44.58
35878;BME280;21982;49.804;24.072;2023-10-13T10:28:05;97539.78;;;26.32;44.45
35878;BME280;21982;49.804;24.072;2023-10-13T10:30:33;97513.00;;;27.07;42.92
35878;BME280;21982;49.804;24.072;2023-10-13T10:33:00;97550.47;;;28.38;42.13
35878;BME280;21982;49.804;24.072;2023-10-13T10:35:27;97478.25;;;29.28;40.00
35878;BME280;21982;49.804;24.072;2023-10-13T10:37:57;97537.00;;;29.89;39.15
35878;BME280;21982;49.804;24.072;2023-10-13T10:40:53;97537.44;;;28.67;40.03
35878;BME280;21982;49.804;24.072;2023-10-13T10:46:25;97534.34;;;27.43;42.12
35878;BME280;21982;49.804;24.072;2023-10-13T10:48:55;97548.81;;;26.56;42.41
35878;BME280;21982;49.804;24.072;2023-10-13T10:51:27;97509.00;;;25.63;43.68
35878;BME280;21982;49.804;24.072;2023-10-13T10:53:57;97509.47;;;25.11;44.39
35878;BME280;21982;49.804;24.072;2023-10-13T10:56:24;97543.63;;;25.02;45.29
35878;BME280;21982;49.804;24.072;2023-10-13T10:59:04;97549.06;;;24.97;45.38
35878;BME280;21982;49.804;24.072;2023-10-13T11:01:31;97545.75;;;25.25;44.97
35878;BME280;21982;49.804;24.072;2023-10-13T11:04:05;97511.28;;;25.90;44.41
35878;BME280;21982;49.804;24.072;2023-10-13T11:06:37;97261.91;;;26.42;42.17
35878;BME280;21982;49.804;24.072;2023-10-13T11:09:15;97555.25;;;29.39;39.36
35878;BME280;21982;49.804;24.072;2023-10-13T11:14:31;97536.50;;;28.58;39.18
35878;BME280;21982;49.804;24.072;2023-10-13T11:16:58;97365.97;;;26.37;40.39
35878;BME280;21982;49.804;24.072;2023-10-13T11:19:35;97393.44;;;27.26;40.74
35878;BME280;21982;49.804;24.072;2023-10-13T11:22:14;97524.75;;;28.44;39.98
35878;BME280;21982;49.804;24.072;2023-10-13T11:25:00;97495.88;;;27.92;40.19
35878;BME280;21982;49.804;24.072;2023-10-13T11:27:30;97426.47;;;26.95;40.17
35878;BME280;21982;49.804;24.072;2023-10-13T11:30:09;97513.41;;;26.66;40.96
35878;BME280;21982;49.804;24.072;2023-10-13T11:32:39;97433.06;;;26.84;40.95
35878;BME280;21982;49.804;24.072;2023-10-13T11:35:08;97520.25;;;29.13;39.42
35878;BME280;21982;49.804;24.072;2023-10-13T11:37:59;97518.84;;;30.43;37.16
35878;BME280;21982;49.804;24.072;2023-10-13T11:40:40;97509.22;;;30.45;36.40
35878;BME280;21982;49.804;24.072;2023-10-13T11:43:09;97481.88;;;29.64;36.81
35878;BME280;21982;49.804;24.072;2023-10-13T11:45:48;97307.03;;;28.75;36.92
35878;BME280;21982;49.804;24.072;2023-10-13T11:48:39;97390.09;;;28.78;36.77
35878;BME280;21982;49.804;24.072;2023-10-13T11:51:08;97401.94;;;29.00;36.53
35878;BME280;21982;49.804;24.072;2023-10-13T11:53:37;97440.41;;;29.76;35.99
35878;BME280;21982;49.804;24.072;2023-10-13T11:56:04;97488.28;;;30.41;35.79
35878;BME280;21982;49.804;24.072;2023-10-13T11:58:34;97496.03;;;30.70;35.38
35878;BME280;21982;49.804;24.072;2023-10-13T12:01:00;97466.09;;;30.64;35.06
35878;BME280;21982;49.804;24.072;2023-10-13T12:03:52;97360.84;;;29.69;35.43
35878;BME280;21982;49.804;24.072;2023-10-13T12:06:36;97497.28;;;30.19;37.98
35878;BME280;21982;49.804;24.072;2023-10-13T12:09:05;97437.16;;;29.74;36.40
35878;BME280;21982;49.804;24.072;2023-10-13T12:11:54;97379.81;;;29.02;36.73
35878;BME280;21982;49.804;24.072;2023-10-13T12:14:25;97502.13;;;29.09;36.60
35878;BME280;21982;49.804;24.072;2023-10-13T12:16:55;97486.09;;;27.91;37.57
35878;BME280;21982;49.804;24.072;2023-10-13T12:19:25;97328.94;;;25.93;39.23
35878;BME280;21982;49.804;24.072;2023-10-13T12:21:55;97485.13;;;26.04;40.62
35878;BME280;21982;49.804;24.072;2023-10-13T12:24:27;97487.66;;;25.42;41.56
35878;BME280;21982;49.804;24.072;2023-10-13T12:27:03;97488.09;;;24.94;42.43
35878;BME280;21982;49.804;24.072;2023-10-13T12:29:40;97477.63;;;24.57;43.10
35878;BME280;21982;49.804;24.072;2023-10-13T12:32:11;97465.19;;;24.11;43.71
35878;BME280;21982;49.804;24.072;2023-10-13T12:34:38;97478.41;;;23.97;44.12
35878;BME280;21982;49.804;24.072;2023-10-13T12:37:23;97446.41;;;23.43;44.85
35878;BME280;21982;49.804;24.072;2023-10-13T12:40:07;97376.28;;;22.86;45.06
35878;BME280;21982;49.804;24.072;2023-10-13T12:42:52;97384.38;;;22.81;45.72
35878;BME280;21982;49.804;24.072;2023-10-13T12:48:23;97329.78;;;22.16;45.60
35878;BME280;21982;49.804;24.072;2023-10-13T12:51:07;97487.34;;;23.04;46.00
35878;BME280;21982;49.804;24.072;2023-10-13T12:53:45;97377.59;;;22.31;46.54
35878;BME280;21982;49.804;24.072;2023-10-13T12:56:10;97404.09;;;22.39;46.85
35878;BME280;21982;49.804;24.072;2023-10-13T12:58:36;97478.22;;;22.68;46.94
35878;BME280;21982;49.804;24.072;2023-10-13T13:01:02;97339.84;;;21.57;47.77
35878;BME280;21982;49.804;24.072;2023-10-13T13:03:34;97476.59;;;22.30;47.97
35878;BME280;21982;49.804;24.072;2023-10-13T13:06:00;97481.09;;;22.15;48.33
35878;BME280;21982;49.804;24.072;2023-10-13T13:08:35;97476.59;;;21.98;48.89
35878;BME280;21982;49.804;24.072;2023-10-13T13:11:00;97201.34;;;20.08;49.22
35878;BME280;21982;49.804;24.072;2023-10-13T13:13:26;97331.06;;;20.86;49.54
35878;BME280;21982;49.804;24.072;2023-10-13T13:15:52;97404.28;;;21.31;49.83
35878;BME280;21982;49.804;24.072;2023-10-13T13:18:17;97366.69;;;20.93;49.94
35878;BME280;21982;49.804;24.072;2023-10-13T13:20:44;97443.31;;;21.29;50.17
35878;BME280;21982;49.804;24.072;2023-10-13T13:23:20;97202.34;;;19.47;50.34
35878;BME280;21982;49.804;24.072;2023-10-13T13:25:46;97451.13;;;21.30;50.65
35878;BME280;21982;49.804;24.072;2023-10-13T13:28:12;97432.53;;;21.07;51.00
35878;BME280;21982;49.804;24.072;2023-10-13T13:30:38;97449.00;;;21.32;51.06
35878;BME280;21982;49.804;24.072;2023-10-13T13:33:04;97466.03;;;21.38;51.48
35878;BME280;21982;49.804;24.072;2023-10-13T13:35:37;97418.63;;;21.37;51.46
35878;BME280;21982;49.804;24.072;2023-10-13T13:38:02;97350.38;;;21.04;51.13
35878;BME280;21982;49.804;24.072;2023-10-13T13:40:46;97382.13;;;21.24;51.28
35878;BME280;21982;49.804;24.072;2023-10-13T13:43:15;97386.69;;;21.24;51.11
35878;BME280;21982;49.804;24.072;2023-10-13T13:45:57;97440.09;;;21.59;51.38
35878;BME280;21982;49.804;24.072;2023-10-13T13:48:26;97313.22;;;20.80;51.29
35878;BME280;21982;49.804;24.072;2023-10-13T13:50:52;97436.53;;;21.48;51.75
35878;BME280;21982;49.804;24.072;2023-10-13T13:53:21;97458.78;;;21.38;51.61
35878;BME280;21982;49.804;24.072;2023-10-13T13:55:52;97363.28;;;20.81;52.03
35878;BME280;21982;49.804;24.072;2023-10-13T13:58:18;97158.53;;;19.24;52.30
35878;BME280;21982;49.804;24.072;2023-10-13T14:00:43;97444.47;;;21.16;52.51
35878;BME280;21982;49.804;24.072;2023-10-13T14:03:13;97092.16;;;18.98;52.57
35878;BME280;21982;49.804;24.072;2023-10-13T14:05:59;97426.59;;;21.05;52.79
35878;BME280;21982;49.804;24.072;2023-10-13T14:08:25;97428.09;;;20.96;53.02
35878;BME280;21982;49.804;24.072;2023-10-13T14:10:53;97267.00;;;19.95;53.09
35878;BME280;21982;49.804;24.072;2023-10-13T14:13:40;97421.25;;;20.88;53.48
35878;BME280;21982;49.804;24.072;2023-10-13T14:16:19;97409.94;;;21.08;53.31
35878;BME280;21982;49.804;24.072;2023-10-13T14:18:54;97408.50;;;21.22;53.24
35878;BME280;21982;49.804;24.072;2023-10-13T14:21:19;97327.31;;;20.87;53.22
35878;BME280;21982;49.804;24.072;2023-10-13T14:23:51;97403.78;;;21.34;53.11
35878;BME280;21982;49.804;24.072;2023-10-13T14:26:20;97407.78;;;21.32;53.35
35878;BME280;21982;49.804;24.072;2023-10-13T14:28:53;97262.75;;;20.38;53.41
35878;BME280;21982;49.804;24.072;2023-10-13T14:31:35;97398.66;;;21.11;53.76
35878;BME280;21982;49.804;24.072;2023-10-13T14:34:09;97288.78;;;20.16;54.36
35878;BME280;21982;49.804;24.072;2023-10-13T14:36:36;97413.38;;;20.82;54.67
35878;BME280;21982;49.804;24.072;2023-10-13T14:39:05;97409.81;;;20.76;55.03
35878;BME280;21982;49.804;24.072;2023-10-13T14:41:37;97406.81;;;20.72;55.40
35878;BME280;21982;49.804;24.072;2023-10-13T14:44:04;97374.16;;;20.42;55.51
35878;BME280;21982;49.804;24.072;2023-10-13T14:46:36;97295.53;;;19.80;55.63
35878;BME280;21982;49.804;24.072;2023-10-13T14:49:02;97338.09;;;20.04;56.01
35878;BME280;21982;49.804;24.072;2023-10-13T14:51:29;97416.56;;;20.57;56.27
35878;BME280;21982;49.804;24.072;2023-10-13T14:53:55;97271.31;;;19.58;56.25
35878;BME280;21982;49.804;24.072;2023-10-13T14:56:27;96980.91;;;17.83;56.43
35878;BME280;21982;49.804;24.072;2023-10-13T14:58:53;97419.31;;;20.40;56.99
35878;BME280;21982;49.804;24.072;2023-10-13T15:01:21;97401.78;;;20.37;57.02